Archiv-/Tagesdaten

--Timestamp---	Temp	Chill	HIndex	Humid	Dewpt	Wind	HiWind	WindDir	Rain	Barom	Solar	ET	UV
--------------	----	-----	------	-----	-----	----	------	-------	----	-----	-----	--	--
20071230 00:05	1.9	1.9	1.9	62	-4.6	2	5	270	0.00	1022.421	0	0.000	0
20071230 00:10	2.0	2.0	2.0	67	-3.5	2	5	247	0.00	1022.320	0	0.000	0
20071230 00:15	2.1	2.1	2.1	70	-2.8	2	5	247	0.00	1022.286	0	0.000	0
20071230 00:20	2.1	2.1	2.1	70	-2.8	0	3	247	0.00	1022.320	0	0.000	0
20071230 00:25	2.0	2.0	2.0	69	-3.1	0	2	247	0.00	1022.252	0	0.000	0
20071230 00:30	1.8	1.8	1.8	70	-3.1	0	2	247	0.00	1022.286	0	0.000	0
20071230 00:35	1.7	1.7	1.7	71	-3.0	0	2	247	0.00	1022.252	0	0.000	0
20071230 00:40	1.5	1.5	1.5	72	-3.0	0	2	247	0.00	1022.218	0	0.000	0
20071230 00:45	1.3	1.3	1.3	74	-2.8	0	0	247	0.00	1022.218	0	0.000	0
20071230 00:50	1.2	1.2	1.2	75	-2.8	0	2	247	0.00	1022.252	0	0.000	0
20071230 00:55	1.0	1.0	1.0	78	-2.4	0	2	247	0.00	1022.117	0	0.000	0
20071230 01:00	0.9	0.9	0.9	80	-2.2	0	5	247	0.00	1022.184	0	0.020	0
20071230 01:05	0.9	0.9	0.9	81	-2.0	2	5	247	0.20	1021.744	0	0.000	0
20071230 01:10	0.9	0.9	0.9	82	-1.8	3	6	247	0.00	1021.778	0	0.000	0
20071230 01:15	1.0	1.0	1.0	83	-1.6	0	3	247	0.00	1021.846	0	0.000	0
20071230 01:20	1.1	1.1	1.1	83	-1.4	0	5	247	0.00	1021.880	0	0.000	0
20071230 01:25	1.2	1.2	1.2	84	-1.2	2	6	247	0.00	1021.880	0	0.000	0
20071230 01:30	1.3	1.3	1.3	84	-1.1	3	8	202	0.00	1022.015	0	0.000	0
20071230 01:35	1.3	1.3	1.3	83	-1.2	3	6	225	0.20	1022.015	0	0.000	0
20071230 01:40	1.5	1.5	1.5	84	-0.9	3	6	225	0.00	1021.880	0	0.000	0
20071230 01:45	1.7	1.7	1.7	86	-0.4	3	8	247	0.00	1021.880	0	0.000	0
20071230 01:50	1.8	1.8	1.8	87	-0.1	3	8	247	0.00	1021.880	0	0.000	0
20071230 01:55	1.8	1.8	1.8	88	0.1	3	6	247	0.00	1021.913	0	0.000	0
20071230 02:00	1.9	1.9	1.9	88	0.1	2	6	247	0.00	1021.880	0	0.000	0
20071230 02:05	1.9	1.9	1.9	89	0.3	2	5	247	0.20	1022.049	0	0.000	0
20071230 02:10	1.9	1.9	1.9	90	0.5	5	14	247	0.00	1022.015	0	0.000	0
20071230 02:15	2.1	2.1	2.1	90	0.6	5	14	247	0.20	1022.083	0	0.000	0
20071230 02:20	2.2	0.3	2.2	90	0.7	6	18	247	0.20	1022.184	0	0.000	0
20071230 02:25	2.1	2.1	2.1	90	0.6	5	11	247	0.00	1022.218	0	0.000	0
20071230 02:30	2.1	0.3	2.1	90	0.6	6	13	247	0.00	1022.218	0	0.000	0
20071230 02:35	2.1	0.3	2.1	90	0.6	6	11	247	0.20	1022.286	0	0.000	0
20071230 02:40	2.1	0.3	2.1	91	0.8	6	18	247	0.00	1022.421	0	0.000	0
20071230 02:45	2.1	2.1	2.1	91	0.7	5	14	270	0.20	1022.421	0	0.000	0
20071230 02:50	2.0	2.0	2.0	91	0.7	5	18	270	0.00	1022.421	0	0.000	0
20071230 02:55	2.0	2.0	2.0	91	0.7	5	10	247	0.00	1022.489	0	0.000	0
20071230 03:00	1.9	1.9	1.9	91	0.6	5	8	270	0.20	1022.489	0	0.000	0
20071230 03:05	1.8	1.8	1.8	91	0.5	5	11	247	0.00	1022.760	0	0.000	0
20071230 03:10	1.8	1.8	1.8	91	0.5	5	10	247	0.00	1022.726	0	0.000	0
20071230 03:15	1.8	1.8	1.8	92	0.7	5	10	270	0.20	1022.794	0	0.000	0
20071230 03:20	1.8	-0.1	1.8	92	0.7	6	11	270	0.00	1022.828	0	0.000	0
20071230 03:25	1.8	1.8	1.8	92	0.6	5	10	247	0.20	1022.895	0	0.000	0
20071230 03:30	1.7	1.7	1.7	92	0.6	5	8	247	0.00	1022.929	0	0.000	0
20071230 03:35	1.7	1.7	1.7	92	0.6	5	8	270	0.20	1022.862	0	0.000	0
20071230 03:40	1.7	1.7	1.7	92	0.6	3	10	247	0.00	1022.895	0	0.000	0
20071230 03:45	1.7	1.7	1.7	92	0.6	5	8	247	0.20	1022.895	0	0.000	0
20071230 03:50	1.7	1.7	1.7	92	0.5	5	10	247	0.00	1022.963	0	0.000	0
20071230 03:55	1.7	1.7	1.7	92	0.5	5	10	270	0.20	1022.963	0	0.000	0
20071230 04:00	1.7	1.7	1.7	93	0.7	5	10	270	0.00	1022.963	0	0.000	0
20071230 04:05	1.7	1.7	1.7	93	0.7	3	8	225	0.00	1023.065	0	0.000	0
20071230 04:10	1.7	1.7	1.7	93	0.7	3	5	270	0.20	1023.099	0	0.000	0
20071230 04:15	1.7	1.7	1.7	93	0.7	5	10	247	0.00	1023.166	0	0.000	0
20071230 04:20	1.7	1.7	1.7	93	0.7	5	11	247	0.20	1023.200	0	0.000	0
20071230 04:25	1.7	-0.7	1.7	93	0.7	8	18	247	0.20	1023.166	0	0.000	0
20071230 04:30	1.7	-0.2	1.7	93	0.7	6	11	247	0.00	1023.099	0	0.000	0
20071230 04:35	1.7	1.7	1.7	93	0.7	5	11	247	0.00	1023.065	0	0.000	0
20071230 04:40	1.7	1.7	1.7	93	0.7	5	16	270	0.20	1023.065	0	0.000	0
20071230 04:45	1.7	-0.3	1.7	93	0.7	6	11	247	0.00	1023.031	0	0.000	0
20071230 04:50	1.7	1.7	1.7	93	0.7	5	10	247	0.20	1023.031	0	0.000	0
20071230 04:55	1.6	1.6	1.6	93	0.6	5	10	270	0.00	1022.997	0	0.000	0
20071230 05:00	1.6	1.6	1.6	93	0.5	5	8	247	0.20	1022.997	0	0.000	0
20071230 05:05	1.6	1.6	1.6	93	0.5	5	11	247	0.00	1023.132	0	0.000	0
20071230 05:10	1.5	-0.4	1.5	93	0.5	6	11	247	0.00	1023.234	0	0.000	0
20071230 05:15	1.4	1.4	1.4	93	0.4	5	10	270	0.00	1023.302	0	0.000	0
20071230 05:20	1.3	1.3	1.3	93	0.3	5	10	247	0.20	1023.370	0	0.000	0
20071230 05:25	1.3	1.3	1.3	93	0.3	5	10	270	0.00	1023.370	0	0.000	0
20071230 05:30	1.3	1.3	1.3	93	0.3	5	8	270	0.00	1023.370	0	0.000	0
20071230 05:35	1.3	1.3	1.3	93	0.3	3	6	247	0.20	1023.336	0	0.000	0
20071230 05:40	1.3	1.3	1.3	93	0.3	3	6	270	0.00	1023.302	0	0.000	0
20071230 05:45	1.3	1.3	1.3	93	0.3	3	6	270	0.00	1023.268	0	0.000	0
20071230 05:50	1.3	1.3	1.3	93	0.3	2	5	270	0.00	1023.166	0	0.000	0
20071230 05:55	1.3	1.3	1.3	93	0.3	2	6	270	0.20	1023.234	0	0.000	0
20071230 06:00	1.3	1.3	1.3	93	0.3	2	5	270	0.00	1023.234	0	0.000	0
20071230 06:05	1.3	1.3	1.3	93	0.3	0	2	270	0.00	1022.997	0	0.000	0
20071230 06:10	1.3	1.3	1.3	93	0.3	0	2	270	0.00	1022.929	0	0.000	0
20071230 06:15	1.3	1.3	1.3	93	0.3	0	2	270	0.00	1023.065	0	0.000	0
20071230 06:20	1.2	1.2	1.2	93	0.2	0	3	270	0.20	1022.997	0	0.000	0
20071230 06:25	1.3	1.3	1.3	93	0.3	0	3	270	0.00	1022.997	0	0.000	0
20071230 06:30	1.2	1.2	1.2	93	0.2	0	2	270	0.00	1022.963	0	0.000	0
20071230 06:35	1.2	1.2	1.2	93	0.2	0	2	270	0.00	1022.963	0	0.000	0
20071230 06:40	1.2	1.2	1.2	93	0.2	0	2	270	0.00	1022.963	0	0.000	0
20071230 06:45	1.2	1.2	1.2	93	0.2	0	0	270	0.00	1022.929	0	0.000	0
20071230 06:50	1.1	1.1	1.1	93	0.1	0	0	270	0.20	1022.929	0	0.000	0
20071230 06:55	1.1	1.1	1.1	93	0.1	0	2	270	0.00	1022.963	0	0.000	0
20071230 07:00	1.1	1.1	1.1	93	0.1	2	3	270	0.00	1022.997	0	0.000	0
20071230 07:05	1.2	1.2	1.2	94	0.3	0	3	270	0.00	1023.166	0	0.000	0
20071230 07:10	1.1	1.1	1.1	94	0.3	0	3	270	0.00	1023.166	0	0.000	0
20071230 07:15	1.2	1.2	1.2	94	0.3	0	5	270	0.00	1023.166	0	0.000	0
20071230 07:20	1.1	1.1	1.1	94	0.3	0	2	270	0.00	1023.166	0	0.000	0
20071230 07:25	1.1	1.1	1.1	94	0.3	0	3	270	0.00	1023.166	0	0.000	0
20071230 07:30	1.1	1.1	1.1	94	0.3	0	3	270	0.00	1023.234	0	0.000	0
20071230 07:35	1.1	1.1	1.1	94	0.3	0	2	270	0.00	1023.302	0	0.000	0
20071230 07:40	1.1	1.1	1.1	94	0.3	0	3	270	0.20	1023.370	0	0.000	0
20071230 07:45	1.2	1.2	1.2	94	0.3	0	3	270	0.00	1023.403	0	0.000	0
20071230 07:50	1.2	1.2	1.2	94	0.3	0	3	270	0.00	1023.437	0	0.000	0
20071230 07:55	1.2	1.2	1.2	94	0.3	2	3	270	0.00	1023.505	0	0.000	0
20071230 08:00	1.1	1.1	1.1	94	0.3	0	3	270	0.00	1023.505	0	0.000	0
20071230 08:05	1.1	1.1	1.1	94	0.2	0	5	270	0.00	1023.607	0	0.000	0
20071230 08:10	1.1	1.1	1.1	94	0.2	3	6	270	0.00	1023.640	0	0.000	0
20071230 08:15	1.1	1.1	1.1	94	0.2	2	5	270	0.00	1023.674	0	0.000	0
20071230 08:20	1.1	1.1	1.1	94	0.2	0	3	270	0.00	1023.776	0	0.000	0
20071230 08:25	1.1	1.1	1.1	94	0.2	0	3	270	0.00	1023.810	0	0.000	0
20071230 08:30	1.1	1.1	1.1	94	0.2	2	6	270	0.00	1023.844	0	0.000	0
20071230 08:35	1.1	1.1	1.1	94	0.2	2	5	270	0.00	1023.911	0	0.000	0
20071230 08:40	1.1	1.1	1.1	94	0.2	2	5	270	0.20	1023.979	0	0.000	0
20071230 08:45	1.1	1.1	1.1	94	0.2	2	5	270	0.00	1024.013	0	0.000	0
20071230 08:50	1.1	1.1	1.1	94	0.2	0	2	270	0.00	1024.115	0	0.000	0
20071230 08:55	1.1	1.1	1.1	94	0.2	0	3	270	0.00	1024.216	0	0.000	0
20071230 09:00	1.1	1.1	1.1	94	0.2	0	3	270	0.00	1024.352	0	0.000	0
20071230 09:05	1.1	1.1	1.1	94	0.2	2	5	270	0.20	1024.385	3	0.000	0
20071230 09:10	1.1	1.1	1.1	94	0.2	3	6	270	0.00	1024.487	5	0.000	0
20071230 09:15	1.0	1.0	1.0	94	0.1	3	6	202	0.20	1024.521	6	0.000	0
20071230 09:20	0.9	0.9	0.9	94	0.1	2	6	202	0.00	1024.555	9	0.000	0
20071230 09:25	0.9	0.9	0.9	94	0.1	2	5	202	0.00	1024.521	9	0.000	0
20071230 09:30	0.9	0.9	0.9	94	0.1	2	5	202	0.20	1024.521	9	0.000	0
20071230 09:35	0.9	0.9	0.9	94	0.1	2	3	202	0.00	1024.623	9	0.000	0
20071230 09:40	0.9	0.9	0.9	94	0.0	3	5	202	0.00	1024.656	11	0.000	0
20071230 09:45	0.9	0.9	0.9	94	0.0	2	6	202	0.00	1024.724	12	0.000	0
20071230 09:50	0.9	0.9	0.9	94	0.1	2	6	202	0.00	1024.792	13	0.000	0
20071230 09:55	0.9	0.9	0.9	94	0.1	2	5	202	0.20	1024.859	15	0.000	0
20071230 10:00	1.0	1.0	1.0	94	0.1	3	8	247	0.00	1024.859	18	0.000	0
20071230 10:05	1.1	1.1	1.1	94	0.2	2	5	247	0.00	1024.792	20	0.000	0
20071230 10:10	1.1	1.1	1.1	94	0.2	2	8	247	0.00	1024.826	19	0.000	0
20071230 10:15	1.1	1.1	1.1	94	0.3	2	5	247	0.20	1024.893	14	0.000	0
20071230 10:20	1.1	1.1	1.1	94	0.3	2	6	247	0.00	1024.927	16	0.000	0
20071230 10:25	1.0	1.0	1.0	94	0.1	3	6	247	0.00	1024.995	15	0.000	0
20071230 10:30	0.9	0.9	0.9	94	0.1	2	6	247	0.20	1025.063	16	0.000	0
20071230 10:35	0.9	0.9	0.9	94	0.1	2	5	247	0.00	1025.130	23	0.000	0
20071230 10:40	0.9	0.9	0.9	94	0.1	2	5	247	0.00	1025.164	23	0.000	0
20071230 10:45	0.9	0.9	0.9	94	0.1	2	5	247	0.00	1025.063	33	0.000	0
20071230 10:50	1.0	1.0	1.0	94	0.1	3	8	247	0.00	1025.097	44	0.000	0
20071230 10:55	1.1	1.1	1.1	94	0.2	2	8	202	0.00	1025.198	47	0.000	0
20071230 11:00	1.1	1.1	1.1	94	0.2	3	6	202	0.00	1025.198	52	0.000	0
20071230 11:05	1.1	1.1	1.1	94	0.3	3	8	202	0.00	1025.164	45	0.000	0
20071230 11:10	1.2	1.2	1.2	94	0.3	2	8	202	0.00	1025.097	39	0.000	0
20071230 11:15	1.2	1.2	1.2	94	0.4	3	8	225	0.00	1025.130	45	0.000	0
20071230 11:20	1.3	1.3	1.3	94	0.4	3	8	202	0.00	1025.130	65	0.000	0
20071230 11:25	1.3	1.3	1.3	94	0.5	2	6	202	0.00	1025.130	94	0.000	0
20071230 11:30	1.3	1.3	1.3	94	0.5	2	5	202	0.00	1025.029	103	0.000	0
20071230 11:35	1.5	1.5	1.5	94	0.6	3	8	225	0.00	1024.995	111	0.000	0
20071230 11:40	1.7	1.7	1.7	94	0.8	3	6	247	0.00	1024.961	131	0.000	0
20071230 11:45	1.8	1.8	1.8	93	0.8	3	8	247	0.00	1024.893	135	0.000	0
20071230 11:50	1.9	1.9	1.9	93	0.9	3	8	247	0.00	1024.961	115	0.000	0
20071230 11:55	2.0	2.0	2.0	93	1.0	2	10	202	0.00	1024.961	105	0.000	0
20071230 12:00	2.1	2.1	2.1	93	1.1	3	8	247	0.00	1024.961	102	0.020	0
20071230 12:05	2.2	2.2	2.2	92	1.0	5	10	247	0.00	1024.961	103	0.000	0
20071230 12:10	2.3	2.3	2.3	92	1.1	3	10	225	0.00	1024.995	102	0.000	0
20071230 12:15	2.3	2.3	2.3	92	1.2	3	10	225	0.00	1024.961	107	0.000	0
20071230 12:20	2.4	2.4	2.4	91	1.1	5	10	225	0.00	1024.927	115	0.000	0
20071230 12:25	2.5	2.5	2.5	91	1.2	5	10	225	0.00	1024.893	158	0.000	1
20071230 12:30	2.7	2.7	2.7	91	1.3	5	14	247	0.00	1024.859	202	0.000	1
20071230 12:35	2.9	2.9	2.9	90	1.4	5	11	225	0.00	1024.758	225	0.000	1
20071230 12:40	3.1	3.1	3.1	89	1.5	5	11	225	0.00	1024.555	239	0.000	1
20071230 12:45	3.3	3.3	3.3	88	1.5	5	11	225	0.00	1024.487	235	0.000	1
20071230 12:50	3.4	1.7	3.4	88	1.6	6	16	247	0.00	1024.487	219	0.000	1
20071230 12:55	3.4	3.4	3.4	87	1.4	5	14	247	0.00	1024.419	187	0.000	1
20071230 13:00	3.4	3.4	3.4	87	1.5	5	14	247	0.00	1024.521	189	0.060	1
20071230 13:05	3.4	3.4	3.4	86	1.3	5	16	247	0.00	1024.385	195	0.000	1
20071230 13:10	3.4	3.4	3.4	88	1.6	3	10	247	0.00	1024.352	143	0.000	0
20071230 13:15	3.4	3.4	3.4	87	1.4	3	11	247	0.00	1024.284	124	0.000	0
20071230 13:20	3.3	3.3	3.3	87	1.4	5	11	247	0.00	1024.352	120	0.000	0
20071230 13:25	3.3	3.3	3.3	87	1.3	3	10	247	0.00	1024.216	105	0.000	0
20071230 13:30	3.3	3.3	3.3	88	1.5	5	14	202	0.00	1024.148	154	0.000	0
20071230 13:35	3.4	3.4	3.4	88	1.6	3	14	225	0.00	1024.216	125	0.000	0
20071230 13:40	3.5	3.5	3.5	87	1.5	5	18	247	0.00	1024.182	163	0.000	0
20071230 13:45	3.5	3.5	3.5	87	1.5	3	10	225	0.00	1024.148	121	0.000	0
20071230 13:50	3.5	3.5	3.5	87	1.5	3	11	247	0.00	1024.115	103	0.000	0
20071230 13:55	3.4	3.4	3.4	92	2.2	2	6	225	0.00	1024.115	90	0.000	0
20071230 14:00	3.3	3.3	3.3	87	1.4	3	8	225	0.00	1024.148	94	0.040	0
20071230 14:05	3.4	3.4	3.4	87	1.4	2	6	247	0.00	1024.047	118	0.000	0
20071230 14:10	3.4	3.4	3.4	87	1.5	2	10	225	0.00	1024.047	92	0.000	0
20071230 14:15	3.4	3.4	3.4	87	1.4	2	6	247	0.00	1024.047	78	0.000	0
20071230 14:20	3.3	3.3	3.3	87	1.4	2	5	247	0.00	1024.013	62	0.000	0
20071230 14:25	3.3	3.3	3.3	87	1.3	0	3	247	0.00	1024.081	48	0.000	0
20071230 14:30	3.2	3.2	3.2	87	1.3	3	8	202	0.00	1024.115	37	0.000	0
20071230 14:35	3.1	3.1	3.1	87	1.2	2	6	202	0.00	1024.148	33	0.000	0
20071230 14:40	3.0	3.0	3.0	88	1.2	5	8	202	0.00	1024.115	34	0.000	0
20071230 14:45	3.0	3.0	3.0	88	1.2	3	8	225	0.00	1024.250	26	0.000	0
20071230 14:50	2.9	2.9	2.9	88	1.2	2	6	225	0.00	1024.284	25	0.000	0
20071230 14:55	2.9	2.9	2.9	88	1.2	2	5	225	0.00	1024.284	25	0.000	0
20071230 15:00	2.9	2.9	2.9	87	1.0	3	10	247	0.00	1024.318	25	0.020	0
20071230 15:05	3.0	3.0	3.0	87	1.1	3	8	247	0.00	1024.318	30	0.000	0
20071230 15:10	3.0	3.0	3.0	86	0.9	3	10	225	0.00	1024.318	28	0.000	0
20071230 15:15	3.0	3.0	3.0	86	0.9	3	10	247	0.00	1024.419	22	0.000	0
20071230 15:20	3.0	3.0	3.0	86	0.9	3	10	225	0.00	1024.521	18	0.000	0
20071230 15:25	2.9	2.9	2.9	86	0.8	2	8	225	0.00	1024.555	15	0.000	0
20071230 15:30	2.9	2.9	2.9	87	0.9	3	10	247	0.00	1024.555	13	0.000	0
20071230 15:35	2.9	2.9	2.9	87	0.9	2	6	247	0.00	1024.690	12	0.000	0
20071230 15:40	2.8	2.8	2.8	87	0.9	2	8	247	0.00	1024.690	12	0.000	0
20071230 15:45	2.8	2.8	2.8	87	0.8	2	6	247	0.00	1024.792	12	0.000	0
20071230 15:50	2.7	2.7	2.7	87	0.8	2	5	247	0.00	1024.792	11	0.000	0
20071230 15:55	2.7	2.7	2.7	86	0.6	2	5	247	0.00	1024.893	2	0.000	0
20071230 16:00	2.6	2.6	2.6	86	0.5	2	6	247	0.00	1025.029	0	0.000	0
20071230 16:05	2.6	2.6	2.6	86	0.5	3	6	247	0.00	1025.029	0	0.000	0
20071230 16:10	2.5	2.5	2.5	86	0.4	2	5	247	0.00	1025.130	0	0.000	0
20071230 16:15	2.5	2.5	2.5	86	0.4	2	6	247	0.00	1025.300	0	0.000	0
20071230 16:20	2.4	2.4	2.4	86	0.3	3	6	247	0.00	1025.266	0	0.000	0
20071230 16:25	2.4	2.4	2.4	86	0.3	3	6	247	0.00	1025.435	0	0.000	0
20071230 16:30	2.5	2.5	2.5	86	0.4	3	6	247	0.00	1025.300	0	0.000	0
20071230 16:35	2.5	2.5	2.5	85	0.2	5	10	247	0.00	1025.300	0	0.000	0
20071230 16:40	2.5	2.5	2.5	85	0.2	5	10	247	0.00	1025.435	0	0.000	0
20071230 16:45	2.4	2.4	2.4	86	0.3	3	8	247	0.00	1025.503	0	0.000	0
20071230 16:50	2.4	2.4	2.4	85	0.2	3	8	247	0.00	1025.638	0	0.000	0
20071230 16:55	2.4	2.4	2.4	85	0.2	3	8	270	0.00	1025.706	0	0.000	0
20071230 17:00	2.4	2.4	2.4	85	0.2	5	11	247	0.00	1025.706	0	0.000	0
20071230 17:05	2.5	0.7	2.5	85	0.2	6	11	247	0.00	1025.706	0	0.000	0
20071230 17:10	2.5	0.7	2.5	85	0.2	6	14	247	0.00	1025.774	0	0.000	0
20071230 17:15	2.4	0.6	2.4	85	0.2	6	11	247	0.00	1025.842	0	0.000	0
20071230 17:20	2.4	0.6	2.4	85	0.1	6	11	247	0.00	1025.842	0	0.000	0
20071230 17:25	2.4	2.4	2.4	85	0.1	5	11	247	0.00	1025.909	0	0.000	0
20071230 17:30	2.3	2.3	2.3	85	0.1	5	11	247	0.00	1025.909	0	0.000	0
20071230 17:35	2.3	2.3	2.3	85	0.1	5	10	247	0.00	1026.011	0	0.000	0
20071230 17:40	2.3	2.3	2.3	85	0.0	5	14	247	0.00	1026.079	0	0.000	0
20071230 17:45	2.2	2.2	2.2	84	-0.2	5	14	247	0.00	1026.113	0	0.000	0
20071230 17:50	2.2	2.2	2.2	84	-0.3	5	10	225	0.00	1026.146	0	0.000	0
20071230 17:55	2.2	2.2	2.2	84	-0.3	5	11	247	0.00	1026.113	0	0.000	0
20071230 18:00	2.2	2.2	2.2	84	-0.2	5	10	247	0.00	1026.113	0	0.000	0
20071230 18:05	2.2	2.2	2.2	84	-0.2	5	11	247	0.00	1026.146	0	0.000	0
20071230 18:10	2.2	2.2	2.2	84	-0.2	5	14	225	0.00	1026.180	0	0.000	0
20071230 18:15	2.2	2.2	2.2	84	-0.3	5	14	247	0.00	1026.248	0	0.000	0
20071230 18:20	2.2	2.2	2.2	84	-0.2	5	10	247	0.00	1026.180	0	0.000	0
20071230 18:25	2.2	2.2	2.2	85	-0.0	5	10	247	0.00	1026.248	0	0.000	0
20071230 18:30	2.2	2.2	2.2	85	-0.1	5	10	247	0.00	1026.316	0	0.000	0
20071230 18:35	2.2	2.2	2.2	85	-0.1	5	10	247	0.00	1026.316	0	0.000	0
20071230 18:40	2.2	2.2	2.2	85	-0.0	3	10	247	0.00	1026.282	0	0.000	0
20071230 18:45	2.2	2.2	2.2	85	-0.0	5	14	247	0.00	1026.316	0	0.000	0
20071230 18:50	2.2	2.2	2.2	85	-0.0	5	10	247	0.00	1026.383	0	0.000	0
20071230 18:55	2.2	2.2	2.2	85	-0.1	3	14	247	0.00	1026.451	0	0.000	0
20071230 19:00	2.1	2.1	2.1	85	-0.1	3	11	247	0.00	1026.485	0	0.000	0
20071230 19:05	2.1	2.1	2.1	86	-0.0	3	8	247	0.00	1026.553	0	0.000	0
20071230 19:10	2.1	2.1	2.1	86	-0.0	3	8	247	0.00	1026.485	0	0.000	0
20071230 19:15	2.1	2.1	2.1	86	-0.0	3	10	247	0.00	1026.451	0	0.000	0
20071230 19:20	2.1	2.1	2.1	86	0.0	5	14	247	0.00	1026.553	0	0.000	0
20071230 19:25	2.2	2.2	2.2	85	-0.1	5	10	247	0.00	1026.553	0	0.000	0
20071230 19:30	2.2	2.2	2.2	85	-0.1	3	8	270	0.00	1026.553	0	0.000	0
20071230 19:35	2.2	2.2	2.2	85	-0.0	5	16	225	0.00	1026.553	0	0.000	0
20071230 19:40	2.2	2.2	2.2	85	-0.1	5	14	225	0.00	1026.587	0	0.000	0
20071230 19:45	2.2	0.3	2.2	85	-0.1	6	10	247	0.00	1026.654	0	0.000	0
20071230 19:50	2.1	2.1	2.1	85	-0.2	5	11	247	0.00	1026.654	0	0.000	0
20071230 19:55	2.0	2.0	2.0	86	-0.1	5	8	247	0.00	1026.722	0	0.000	0
20071230 20:00	2.0	2.0	2.0	86	-0.1	5	16	270	0.00	1026.654	0	0.000	0
20071230 20:05	2.0	2.0	2.0	86	-0.1	5	16	270	0.00	1026.722	0	0.000	0
20071230 20:10	2.0	2.0	2.0	86	-0.1	3	6	270	0.00	1026.654	0	0.000	0
20071230 20:15	2.1	2.1	2.1	86	-0.0	5	11	225	0.00	1026.722	0	0.000	0
20071230 20:20	2.1	0.2	2.1	86	-0.0	6	16	247	0.00	1026.654	0	0.000	0
20071230 20:25	2.1	2.1	2.1	86	-0.0	5	11	247	0.00	1026.722	0	0.000	0
20071230 20:30	2.1	2.1	2.1	86	-0.0	5	11	270	0.00	1026.790	0	0.000	0
20071230 20:35	2.1	2.1	2.1	86	-0.0	5	10	247	0.00	1026.688	0	0.000	0
20071230 20:40	2.1	2.1	2.1	86	0.0	5	11	270	0.00	1026.688	0	0.000	0
20071230 20:45	2.1	0.3	2.1	86	0.0	6	13	270	0.00	1026.688	0	0.000	0
20071230 20:50	2.1	0.3	2.1	86	0.0	6	14	247	0.00	1026.824	0	0.000	0
20071230 20:55	2.1	0.3	2.1	86	0.0	6	14	270	0.00	1026.790	0	0.000	0
20071230 21:00	2.1	-0.3	2.1	87	0.2	8	23	247	0.00	1026.722	0	0.000	0
20071230 21:05	2.1	0.2	2.1	86	-0.0	6	18	247	0.00	1026.790	0	0.000	0
20071230 21:10	2.1	-0.8	2.1	86	-0.0	10	19	247	0.00	1026.790	0	0.000	0
20071230 21:15	2.1	-0.8	2.1	87	0.1	10	23	247	0.00	1026.688	0	0.000	0
20071230 21:20	2.1	-0.3	2.1	87	0.1	8	16	247	0.00	1026.688	0	0.000	0
20071230 21:25	2.0	0.1	2.0	87	0.1	6	16	247	0.00	1026.688	0	0.000	0
20071230 21:30	1.9	0.1	1.9	87	0.0	6	11	270	0.00	1026.722	0	0.000	0
20071230 21:35	1.9	0.1	1.9	88	0.2	6	14	247	0.00	1026.654	0	0.000	0
20071230 21:40	1.9	-0.5	1.9	88	0.1	8	14	247	0.00	1026.688	0	0.000	0
20071230 21:45	1.9	0.0	1.9	88	0.1	6	18	247	0.00	1026.790	0	0.000	0
20071230 21:50	1.9	0.0	1.9	88	0.1	6	14	225	0.00	1026.790	0	0.000	0
20071230 21:55	1.8	-0.1	1.8	88	0.1	6	16	247	0.00	1026.790	0	0.000	0
20071230 22:00	1.8	1.8	1.8	88	0.1	5	11	247	0.00	1026.790	0	0.000	0
20071230 22:05	1.8	-0.1	1.8	88	0.1	6	11	247	0.00	1026.824	0	0.000	0
20071230 22:10	1.8	-0.1	1.8	88	0.1	6	16	247	0.00	1026.824	0	0.000	0
20071230 22:15	1.8	-0.1	1.8	88	0.1	6	10	247	0.00	1026.858	0	0.000	0
20071230 22:20	1.8	-0.1	1.8	88	0.1	6	16	247	0.00	1026.824	0	0.000	0
20071230 22:25	1.8	-0.1	1.8	88	0.1	6	14	270	0.00	1026.858	0	0.000	0
20071230 22:30	1.8	-0.1	1.8	88	0.1	6	16	247	0.00	1026.891	0	0.000	0
20071230 22:35	1.8	-0.1	1.8	88	0.1	6	11	247	0.00	1026.891	0	0.000	0
20071230 22:40	1.8	-0.1	1.8	88	0.1	6	11	247	0.00	1026.925	0	0.000	0
20071230 22:45	1.8	1.8	1.8	88	0.1	5	13	247	0.00	1026.959	0	0.000	0
20071230 22:50	1.8	1.8	1.8	88	0.0	5	11	247	0.00	1026.993	0	0.000	0
20071230 22:55	1.8	-0.1	1.8	88	0.0	6	11	247	0.00	1026.858	0	0.000	0
20071230 23:00	1.8	1.8	1.8	88	0.1	5	14	247	0.00	1026.959	0	0.000	0
20071230 23:05	1.8	1.8	1.8	88	0.1	5	11	270	0.00	1026.891	0	0.000	0
20071230 23:10	1.8	1.8	1.8	88	0.1	5	14	270	0.00	1026.858	0	0.000	0
20071230 23:15	1.9	1.9	1.9	88	0.1	5	11	270	0.00	1026.790	0	0.000	0
20071230 23:20	1.9	0.1	1.9	87	0.0	6	16	270	0.00	1026.925	0	0.000	0
20071230 23:25	1.9	1.9	1.9	87	0.0	5	16	247	0.00	1026.722	0	0.000	0
20071230 23:30	1.9	1.9	1.9	87	0.0	5	14	225	0.00	1026.722	0	0.000	0
20071230 23:35	2.0	2.0	2.0	86	-0.1	5	16	225	0.00	1026.756	0	0.000	0
20071230 23:40	2.0	0.1	2.0	86	-0.1	6	19	247	0.00	1026.790	0	0.000	0
20071230 23:45	2.1	2.1	2.1	86	-0.0	5	10	247	0.00	1026.790	0	0.000	0
20071230 23:50	2.1	0.2	2.1	86	-0.0	6	13	247	0.00	1026.756	0	0.000	0
20071230 23:55	2.1	0.2	2.1	86	-0.0	6	16	247	0.00	1026.824	0	0.000	0
20071230 24:00	2.1	0.2	2.1	86	-0.0	6	14	247	0.00	1026.858	0	0.000	0



Please note the license to use and transfer of this data:
http://creativecommons.org/licenses/by-nc-sa/3.0/deed.en

Bitte beachten sie die Lizenz zur Verwertung und Weitergabe der Daten:
http://creativecommons.org/licenses/by-nc-sa/3.0/deed.de

zurück zur Übersicht der Archivdaten (Monats und Tagesdaten)

Cookies helfen bei der Bereitstellung von Inhalten. Durch die Nutzung dieser Seiten erklärst du dich damit einverstanden, dass Cookies auf deinem Rechner gespeichert werden. Weitere Information